sensor_id;sensor_type;location;lat;lon;timestamp;P1;durP1;ratioP1;P2;durP2;ratioP2
28934;SDS011;16044;52.726;-2.108;2022-12-24T00:01:03;43.17;;;5.68;;
28934;SDS011;16044;52.726;-2.108;2022-12-24T00:03:32;38.90;;;5.32;;
28934;SDS011;16044;52.726;-2.108;2022-12-24T00:06:04;47.65;;;6.07;;
28934;SDS011;16044;52.726;-2.108;2022-12-24T00:08:33;47.35;;;6.43;;
28934;SDS011;16044;52.726;-2.108;2022-12-24T00:11:00;46.03;;;6.05;;
28934;SDS011;16044;52.726;-2.108;2022-12-24T00:13:27;49.08;;;6.05;;
28934;SDS011;16044;52.726;-2.108;2022-12-24T00:15:54;41.47;;;6.10;;
28934;SDS011;16044;52.726;-2.108;2022-12-24T00:18:21;50.63;;;5.93;;
28934;SDS011;16044;52.726;-2.108;2022-12-24T00:20:48;32.70;;;5.60;;
28934;SDS011;16044;52.726;-2.108;2022-12-24T00:23:16;36.50;;;5.55;;
28934;SDS011;16044;52.726;-2.108;2022-12-24T00:25:43;45.10;;;4.75;;
28934;SDS011;16044;52.726;-2.108;2022-12-24T00:28:11;34.13;;;5.10;;
28934;SDS011;16044;52.726;-2.108;2022-12-24T00:30:39;35.65;;;4.70;;
28934;SDS011;16044;52.726;-2.108;2022-12-24T00:33:08;35.65;;;4.57;;
28934;SDS011;16044;52.726;-2.108;2022-12-24T00:35:36;37.60;;;4.38;;
28934;SDS011;16044;52.726;-2.108;2022-12-24T00:38:04;36.83;;;4.68;;
28934;SDS011;16044;52.726;-2.108;2022-12-24T00:40:33;33.65;;;4.38;;
28934;SDS011;16044;52.726;-2.108;2022-12-24T00:43:00;31.60;;;3.75;;
28934;SDS011;16044;52.726;-2.108;2022-12-24T00:45:27;35.58;;;4.68;;
28934;SDS011;16044;52.726;-2.108;2022-12-24T00:47:54;30.15;;;4.47;;
28934;SDS011;16044;52.726;-2.108;2022-12-24T00:50:21;39.17;;;4.85;;
28934;SDS011;16044;52.726;-2.108;2022-12-24T00:52:47;29.58;;;3.95;;
28934;SDS011;16044;52.726;-2.108;2022-12-24T00:55:14;38.60;;;4.75;;
28934;SDS011;16044;52.726;-2.108;2022-12-24T00:57:41;33.65;;;4.28;;
28934;SDS011;16044;52.726;-2.108;2022-12-24T01:00:08;29.40;;;4.15;;
28934;SDS011;16044;52.726;-2.108;2022-12-24T01:02:36;26.70;;;4.03;;
28934;SDS011;16044;52.726;-2.108;2022-12-24T01:05:03;32.15;;;4.57;;
28934;SDS011;16044;52.726;-2.108;2022-12-24T01:07:37;34.38;;;4.00;;
28934;SDS011;16044;52.726;-2.108;2022-12-24T01:10:10;30.90;;;4.68;;
28934;SDS011;16044;52.726;-2.108;2022-12-24T01:12:40;33.60;;;4.43;;
28934;SDS011;16044;52.726;-2.108;2022-12-24T01:15:08;35.35;;;4.47;;
28934;SDS011;16044;52.726;-2.108;2022-12-24T01:17:37;32.30;;;4.18;;
28934;SDS011;16044;52.726;-2.108;2022-12-24T01:20:05;32.58;;;4.28;;
28934;SDS011;16044;52.726;-2.108;2022-12-24T01:22:35;28.88;;;4.25;;
28934;SDS011;16044;52.726;-2.108;2022-12-24T01:25:02;32.47;;;4.03;;
28934;SDS011;16044;52.726;-2.108;2022-12-24T01:27:29;38.25;;;4.28;;
28934;SDS011;16044;52.726;-2.108;2022-12-24T01:29:56;30.25;;;4.28;;
28934;SDS011;16044;52.726;-2.108;2022-12-24T01:32:23;23.27;;;3.55;;
28934;SDS011;16044;52.726;-2.108;2022-12-24T01:34:50;24.88;;;3.30;;
28934;SDS011;16044;52.726;-2.108;2022-12-24T01:37:16;22.35;;;3.03;;
28934;SDS011;16044;52.726;-2.108;2022-12-24T01:39:43;26.38;;;2.95;;
28934;SDS011;16044;52.726;-2.108;2022-12-24T01:42:14;21.23;;;3.00;;
28934;SDS011;16044;52.726;-2.108;2022-12-24T01:53:54;15.38;;;2.33;;
28934;SDS011;16044;52.726;-2.108;2022-12-24T01:56:26;23.42;;;2.90;;
28934;SDS011;16044;52.726;-2.108;2022-12-24T01:58:57;18.13;;;2.80;;
28934;SDS011;16044;52.726;-2.108;2022-12-24T02:01:32;24.40;;;3.10;;
28934;SDS011;16044;52.726;-2.108;2022-12-24T02:04:01;14.85;;;2.13;;
28934;SDS011;16044;52.726;-2.108;2022-12-24T02:06:37;18.77;;;2.78;;
28934;SDS011;16044;52.726;-2.108;2022-12-24T02:09:04;17.45;;;2.45;;
28934;SDS011;16044;52.726;-2.108;2022-12-24T02:11:32;18.52;;;2.13;;
28934;SDS011;16044;52.726;-2.108;2022-12-24T02:14:02;18.90;;;2.40;;
28934;SDS011;16044;52.726;-2.108;2022-12-24T02:31:40;17.25;;;2.22;;
28934;SDS011;16044;52.726;-2.108;2022-12-24T02:39:47;16.55;;;1.77;;
28934;SDS011;16044;52.726;-2.108;2022-12-24T02:42:50;15.23;;;1.92;;
28934;SDS011;16044;52.726;-2.108;2022-12-24T02:45:33;15.27;;;1.92;;
28934;SDS011;16044;52.726;-2.108;2022-12-24T02:48:01;17.13;;;2.00;;
28934;SDS011;16044;52.726;-2.108;2022-12-24T02:50:29;18.60;;;2.10;;
28934;SDS011;16044;52.726;-2.108;2022-12-24T02:52:55;17.25;;;1.92;;
28934;SDS011;16044;52.726;-2.108;2022-12-24T02:58:13;17.05;;;2.03;;
28934;SDS011;16044;52.726;-2.108;2022-12-24T03:01:16;16.30;;;1.75;;
28934;SDS011;16044;52.726;-2.108;2022-12-24T03:07:21;17.83;;;1.95;;
28934;SDS011;16044;52.726;-2.108;2022-12-24T03:10:00;13.48;;;1.80;;
28934;SDS011;16044;52.726;-2.108;2022-12-24T03:12:38;15.13;;;1.50;;
28934;SDS011;16044;52.726;-2.108;2022-12-24T03:15:12;11.00;;;1.33;;
28934;SDS011;16044;52.726;-2.108;2022-12-24T03:17:42;18.45;;;1.65;;
28934;SDS011;16044;52.726;-2.108;2022-12-24T03:20:14;12.63;;;1.55;;
28934;SDS011;16044;52.726;-2.108;2022-12-24T03:22:47;14.48;;;1.40;;
28934;SDS011;16044;52.726;-2.108;2022-12-24T03:25:14;9.15;;;1.15;;
28934;SDS011;16044;52.726;-2.108;2022-12-24T03:27:42;13.63;;;1.40;;
28934;SDS011;16044;52.726;-2.108;2022-12-24T03:30:10;18.88;;;1.45;;
28934;SDS011;16044;52.726;-2.108;2022-12-24T03:32:39;18.60;;;1.88;;
28934;SDS011;16044;52.726;-2.108;2022-12-24T03:35:07;6.68;;;1.05;;
28934;SDS011;16044;52.726;-2.108;2022-12-24T03:37:35;11.50;;;1.50;;
28934;SDS011;16044;52.726;-2.108;2022-12-24T03:40:03;12.63;;;1.50;;
28934;SDS011;16044;52.726;-2.108;2022-12-24T03:42:31;9.85;;;1.50;;
28934;SDS011;16044;52.726;-2.108;2022-12-24T03:44:58;11.00;;;1.38;;
28934;SDS011;16044;52.726;-2.108;2022-12-24T03:47:25;13.52;;;1.30;;
28934;SDS011;16044;52.726;-2.108;2022-12-24T03:49:52;13.93;;;1.65;;
28934;SDS011;16044;52.726;-2.108;2022-12-24T03:52:19;10.95;;;1.50;;
28934;SDS011;16044;52.726;-2.108;2022-12-24T03:54:46;11.48;;;1.42;;
28934;SDS011;16044;52.726;-2.108;2022-12-24T03:57:13;8.23;;;1.70;;
28934;SDS011;16044;52.726;-2.108;2022-12-24T03:59:40;8.00;;;1.20;;
28934;SDS011;16044;52.726;-2.108;2022-12-24T04:02:06;15.38;;;1.45;;
28934;SDS011;16044;52.726;-2.108;2022-12-24T04:04:34;12.30;;;1.30;;
28934;SDS011;16044;52.726;-2.108;2022-12-24T04:07:03;9.32;;;1.30;;
28934;SDS011;16044;52.726;-2.108;2022-12-24T04:09:31;15.43;;;1.63;;
28934;SDS011;16044;52.726;-2.108;2022-12-24T04:11:58;16.50;;;2.00;;
28934;SDS011;16044;52.726;-2.108;2022-12-24T04:14:25;11.85;;;1.38;;
28934;SDS011;16044;52.726;-2.108;2022-12-24T04:16:52;15.38;;;1.50;;
28934;SDS011;16044;52.726;-2.108;2022-12-24T04:19:19;7.60;;;1.42;;
28934;SDS011;16044;52.726;-2.108;2022-12-24T04:21:46;12.88;;;1.70;;
28934;SDS011;16044;52.726;-2.108;2022-12-24T04:24:13;10.18;;;1.73;;
28934;SDS011;16044;52.726;-2.108;2022-12-24T04:26:39;10.23;;;1.48;;
28934;SDS011;16044;52.726;-2.108;2022-12-24T04:29:06;15.18;;;1.35;;
28934;SDS011;16044;52.726;-2.108;2022-12-24T04:31:33;9.98;;;1.52;;
28934;SDS011;16044;52.726;-2.108;2022-12-24T04:34:00;17.90;;;1.80;;
28934;SDS011;16044;52.726;-2.108;2022-12-24T04:36:27;14.23;;;1.50;;
28934;SDS011;16044;52.726;-2.108;2022-12-24T04:38:55;8.98;;;1.52;;
28934;SDS011;16044;52.726;-2.108;2022-12-24T04:41:22;17.50;;;1.52;;
28934;SDS011;16044;52.726;-2.108;2022-12-24T04:43:51;8.63;;;1.10;;
28934;SDS011;16044;52.726;-2.108;2022-12-24T04:46:21;10.32;;;1.35;;
28934;SDS011;16044;52.726;-2.108;2022-12-24T04:48:51;15.77;;;1.80;;
28934;SDS011;16044;52.726;-2.108;2022-12-24T04:51:19;14.95;;;2.50;;
28934;SDS011;16044;52.726;-2.108;2022-12-24T04:53:47;20.25;;;3.50;;
28934;SDS011;16044;52.726;-2.108;2022-12-24T04:56:16;19.08;;;4.57;;
28934;SDS011;16044;52.726;-2.108;2022-12-24T04:58:49;18.33;;;3.10;;
28934;SDS011;16044;52.726;-2.108;2022-12-24T05:01:21;17.20;;;2.17;;
28934;SDS011;16044;52.726;-2.108;2022-12-24T05:03:51;21.98;;;2.45;;
28934;SDS011;16044;52.726;-2.108;2022-12-24T05:06:22;17.92;;;2.13;;
28934;SDS011;16044;52.726;-2.108;2022-12-24T05:08:55;18.92;;;2.10;;
28934;SDS011;16044;52.726;-2.108;2022-12-24T05:11:23;17.27;;;1.58;;
28934;SDS011;16044;52.726;-2.108;2022-12-24T05:13:50;15.13;;;1.80;;
28934;SDS011;16044;52.726;-2.108;2022-12-24T05:16:18;16.73;;;1.80;;
28934;SDS011;16044;52.726;-2.108;2022-12-24T05:18:47;22.83;;;2.20;;
28934;SDS011;16044;52.726;-2.108;2022-12-24T05:21:15;15.00;;;2.03;;
28934;SDS011;16044;52.726;-2.108;2022-12-24T05:23:45;15.38;;;1.65;;
28934;SDS011;16044;52.726;-2.108;2022-12-24T05:26:32;15.05;;;1.85;;
28934;SDS011;16044;52.726;-2.108;2022-12-24T05:29:05;20.33;;;1.80;;
28934;SDS011;16044;52.726;-2.108;2022-12-24T05:31:34;18.77;;;1.80;;
28934;SDS011;16044;52.726;-2.108;2022-12-24T05:34:01;21.75;;;1.88;;
28934;SDS011;16044;52.726;-2.108;2022-12-24T05:36:29;20.52;;;2.13;;
28934;SDS011;16044;52.726;-2.108;2022-12-24T05:38:56;15.73;;;1.88;;
28934;SDS011;16044;52.726;-2.108;2022-12-24T05:41:23;21.33;;;2.10;;
28934;SDS011;16044;52.726;-2.108;2022-12-24T05:43:50;16.65;;;1.70;;
28934;SDS011;16044;52.726;-2.108;2022-12-24T05:46:18;17.75;;;1.80;;
28934;SDS011;16044;52.726;-2.108;2022-12-24T05:48:47;17.30;;;1.83;;
28934;SDS011;16044;52.726;-2.108;2022-12-24T05:51:16;19.38;;;1.85;;
28934;SDS011;16044;52.726;-2.108;2022-12-24T05:53:45;20.58;;;2.47;;
28934;SDS011;16044;52.726;-2.108;2022-12-24T05:56:14;21.77;;;1.90;;
28934;SDS011;16044;52.726;-2.108;2022-12-24T05:58:44;18.25;;;2.22;;
28934;SDS011;16044;52.726;-2.108;2022-12-24T06:01:11;15.30;;;1.83;;
28934;SDS011;16044;52.726;-2.108;2022-12-24T06:03:39;25.13;;;1.80;;
28934;SDS011;16044;52.726;-2.108;2022-12-24T06:06:08;21.30;;;2.13;;
28934;SDS011;16044;52.726;-2.108;2022-12-24T06:08:39;22.70;;;2.70;;
28934;SDS011;16044;52.726;-2.108;2022-12-24T06:11:09;13.57;;;1.60;;
28934;SDS011;16044;52.726;-2.108;2022-12-24T06:13:39;22.73;;;1.90;;
28934;SDS011;16044;52.726;-2.108;2022-12-24T06:16:10;20.73;;;2.17;;
28934;SDS011;16044;52.726;-2.108;2022-12-24T06:18:42;22.30;;;2.03;;
28934;SDS011;16044;52.726;-2.108;2022-12-24T06:21:10;17.35;;;1.80;;
28934;SDS011;16044;52.726;-2.108;2022-12-24T06:23:38;20.20;;;2.03;;
28934;SDS011;16044;52.726;-2.108;2022-12-24T06:26:08;21.95;;;2.38;;
28934;SDS011;16044;52.726;-2.108;2022-12-24T06:28:39;19.35;;;2.60;;
28934;SDS011;16044;52.726;-2.108;2022-12-24T06:31:08;22.30;;;2.67;;
28934;SDS011;16044;52.726;-2.108;2022-12-24T06:33:39;22.33;;;2.40;;
28934;SDS011;16044;52.726;-2.108;2022-12-24T06:36:07;24.00;;;2.25;;
28934;SDS011;16044;52.726;-2.108;2022-12-24T06:38:44;26.70;;;2.28;;
28934;SDS011;16044;52.726;-2.108;2022-12-24T06:41:12;21.27;;;2.97;;
28934;SDS011;16044;52.726;-2.108;2022-12-24T06:43:44;29.55;;;2.63;;
28934;SDS011;16044;52.726;-2.108;2022-12-24T06:46:13;36.80;;;3.20;;
28934;SDS011;16044;52.726;-2.108;2022-12-24T06:48:42;24.65;;;2.28;;
28934;SDS011;16044;52.726;-2.108;2022-12-24T06:51:11;25.13;;;2.63;;
28934;SDS011;16044;52.726;-2.108;2022-12-24T06:53:38;26.17;;;2.85;;
28934;SDS011;16044;52.726;-2.108;2022-12-24T06:56:07;34.05;;;3.35;;
28934;SDS011;16044;52.726;-2.108;2022-12-24T06:58:37;25.42;;;2.70;;
28934;SDS011;16044;52.726;-2.108;2022-12-24T07:01:06;36.65;;;3.13;;
28934;SDS011;16044;52.726;-2.108;2022-12-24T07:03:40;31.95;;;3.97;;
28934;SDS011;16044;52.726;-2.108;2022-12-24T07:06:28;25.60;;;3.05;;
28934;SDS011;16044;52.726;-2.108;2022-12-24T07:08:55;28.92;;;3.35;;
28934;SDS011;16044;52.726;-2.108;2022-12-24T07:11:23;21.70;;;2.55;;
28934;SDS011;16044;52.726;-2.108;2022-12-24T07:13:51;32.63;;;3.25;;
28934;SDS011;16044;52.726;-2.108;2022-12-24T07:16:18;24.05;;;2.53;;
28934;SDS011;16044;52.726;-2.108;2022-12-24T07:18:46;26.80;;;2.72;;
28934;SDS011;16044;52.726;-2.108;2022-12-24T07:21:13;36.97;;;2.92;;
28934;SDS011;16044;52.726;-2.108;2022-12-24T07:23:40;25.05;;;2.50;;
28934;SDS011;16044;52.726;-2.108;2022-12-24T07:26:07;30.20;;;3.33;;
28934;SDS011;16044;52.726;-2.108;2022-12-24T07:28:34;28.40;;;2.95;;
28934;SDS011;16044;52.726;-2.108;2022-12-24T07:31:01;24.65;;;2.60;;
28934;SDS011;16044;52.726;-2.108;2022-12-24T07:33:28;31.05;;;2.97;;
28934;SDS011;16044;52.726;-2.108;2022-12-24T07:36:03;30.35;;;2.88;;
28934;SDS011;16044;52.726;-2.108;2022-12-24T07:38:33;26.10;;;3.35;;
28934;SDS011;16044;52.726;-2.108;2022-12-24T07:41:00;40.58;;;3.58;;
28934;SDS011;16044;52.726;-2.108;2022-12-24T07:43:27;40.03;;;3.90;;
28934;SDS011;16044;52.726;-2.108;2022-12-24T07:45:55;43.03;;;3.90;;
28934;SDS011;16044;52.726;-2.108;2022-12-24T07:48:24;32.50;;;2.90;;
28934;SDS011;16044;52.726;-2.108;2022-12-24T07:50:54;38.22;;;3.50;;
28934;SDS011;16044;52.726;-2.108;2022-12-24T07:53:22;42.03;;;3.83;;
28934;SDS011;16044;52.726;-2.108;2022-12-24T07:55:50;38.88;;;3.38;;
28934;SDS011;16044;52.726;-2.108;2022-12-24T07:58:18;30.40;;;3.47;;
28934;SDS011;16044;52.726;-2.108;2022-12-24T08:00:45;30.75;;;3.50;;
28934;SDS011;16044;52.726;-2.108;2022-12-24T08:03:18;41.83;;;3.97;;
28934;SDS011;16044;52.726;-2.108;2022-12-24T08:08:14;37.83;;;3.13;;
28934;SDS011;16044;52.726;-2.108;2022-12-24T08:10:41;31.10;;;3.60;;
28934;SDS011;16044;52.726;-2.108;2022-12-24T08:13:09;33.35;;;3.45;;
28934;SDS011;16044;52.726;-2.108;2022-12-24T08:15:36;26.30;;;3.70;;
28934;SDS011;16044;52.726;-2.108;2022-12-24T08:18:03;39.47;;;3.45;;
28934;SDS011;16044;52.726;-2.108;2022-12-24T08:20:30;33.05;;;3.42;;
28934;SDS011;16044;52.726;-2.108;2022-12-24T08:22:57;36.38;;;3.88;;
28934;SDS011;16044;52.726;-2.108;2022-12-24T08:25:23;31.58;;;3.05;;
28934;SDS011;16044;52.726;-2.108;2022-12-24T08:27:50;39.03;;;3.30;;
28934;SDS011;16044;52.726;-2.108;2022-12-24T08:30:17;34.13;;;3.00;;
28934;SDS011;16044;52.726;-2.108;2022-12-24T08:32:47;28.92;;;3.03;;
28934;SDS011;16044;52.726;-2.108;2022-12-24T08:35:14;34.05;;;3.72;;
28934;SDS011;16044;52.726;-2.108;2022-12-24T08:37:41;37.67;;;3.63;;
28934;SDS011;16044;52.726;-2.108;2022-12-24T08:40:08;37.40;;;4.03;;
28934;SDS011;16044;52.726;-2.108;2022-12-24T08:42:35;30.55;;;3.50;;
28934;SDS011;16044;52.726;-2.108;2022-12-24T08:45:02;29.73;;;3.05;;
28934;SDS011;16044;52.726;-2.108;2022-12-24T08:47:30;33.38;;;3.10;;
28934;SDS011;16044;52.726;-2.108;2022-12-24T08:49:57;33.47;;;3.55;;
28934;SDS011;16044;52.726;-2.108;2022-12-24T08:52:23;31.40;;;3.22;;
28934;SDS011;16044;52.726;-2.108;2022-12-24T08:54:50;31.13;;;3.17;;
28934;SDS011;16044;52.726;-2.108;2022-12-24T08:57:17;21.75;;;3.00;;
28934;SDS011;16044;52.726;-2.108;2022-12-24T08:59:45;27.88;;;3.58;;
28934;SDS011;16044;52.726;-2.108;2022-12-24T09:02:12;33.17;;;3.83;;
28934;SDS011;16044;52.726;-2.108;2022-12-24T09:04:39;30.70;;;2.88;;
28934;SDS011;16044;52.726;-2.108;2022-12-24T09:07:07;33.30;;;3.40;;
28934;SDS011;16044;52.726;-2.108;2022-12-24T09:09:35;38.90;;;3.70;;
28934;SDS011;16044;52.726;-2.108;2022-12-24T09:12:06;36.22;;;3.75;;
28934;SDS011;16044;52.726;-2.108;2022-12-24T09:14:34;32.13;;;3.55;;
28934;SDS011;16044;52.726;-2.108;2022-12-24T09:17:01;33.25;;;3.88;;
28934;SDS011;16044;52.726;-2.108;2022-12-24T09:19:28;31.75;;;3.65;;
28934;SDS011;16044;52.726;-2.108;2022-12-24T09:21:54;28.60;;;3.17;;
28934;SDS011;16044;52.726;-2.108;2022-12-24T09:24:21;28.60;;;3.30;;
28934;SDS011;16044;52.726;-2.108;2022-12-24T09:26:48;34.67;;;3.33;;
28934;SDS011;16044;52.726;-2.108;2022-12-24T09:29:22;27.92;;;3.78;;
28934;SDS011;16044;52.726;-2.108;2022-12-24T09:31:49;35.50;;;4.13;;
28934;SDS011;16044;52.726;-2.108;2022-12-24T09:34:16;42.67;;;3.88;;
28934;SDS011;16044;52.726;-2.108;2022-12-24T09:36:43;30.75;;;3.85;;
28934;SDS011;16044;52.726;-2.108;2022-12-24T09:39:11;34.03;;;4.47;;
28934;SDS011;16044;52.726;-2.108;2022-12-24T09:44:36;42.63;;;3.95;;
28934;SDS011;16044;52.726;-2.108;2022-12-24T09:47:10;41.55;;;3.55;;
28934;SDS011;16044;52.726;-2.108;2022-12-24T09:49:48;41.83;;;4.63;;
28934;SDS011;16044;52.726;-2.108;2022-12-24T09:52:26;45.45;;;4.93;;
28934;SDS011;16044;52.726;-2.108;2022-12-24T09:55:16;37.65;;;4.03;;
28934;SDS011;16044;52.726;-2.108;2022-12-24T09:57:59;37.78;;;4.28;;
28934;SDS011;16044;52.726;-2.108;2022-12-24T10:00:35;34.35;;;4.22;;
28934;SDS011;16044;52.726;-2.108;2022-12-24T10:03:16;35.30;;;4.50;;
28934;SDS011;16044;52.726;-2.108;2022-12-24T10:11:15;32.85;;;5.00;;
28934;SDS011;16044;52.726;-2.108;2022-12-24T10:19:16;40.20;;;5.07;;
28934;SDS011;16044;52.726;-2.108;2022-12-24T10:25:22;38.63;;;5.90;;
28934;SDS011;16044;52.726;-2.108;2022-12-24T10:27:57;45.70;;;6.13;;
28934;SDS011;16044;52.726;-2.108;2022-12-24T10:30:27;42.30;;;6.25;;
28934;SDS011;16044;52.726;-2.108;2022-12-24T10:32:55;41.25;;;5.82;;
28934;SDS011;16044;52.726;-2.108;2022-12-24T10:35:23;42.90;;;6.70;;
28934;SDS011;16044;52.726;-2.108;2022-12-24T10:37:55;58.55;;;6.78;;
28934;SDS011;16044;52.726;-2.108;2022-12-24T10:42:58;49.30;;;7.53;;
28934;SDS011;16044;52.726;-2.108;2022-12-24T10:45:26;59.10;;;8.88;;
28934;SDS011;16044;52.726;-2.108;2022-12-24T10:48:04;48.92;;;9.38;;
28934;SDS011;16044;52.726;-2.108;2022-12-24T10:51:12;34.25;;;7.72;;
28934;SDS011;16044;52.726;-2.108;2022-12-24T10:53:42;44.78;;;8.90;;
28934;SDS011;16044;52.726;-2.108;2022-12-24T10:56:13;51.00;;;9.93;;
28934;SDS011;16044;52.726;-2.108;2022-12-24T10:58:52;43.67;;;9.13;;
28934;SDS011;16044;52.726;-2.108;2022-12-24T11:04:14;54.67;;;9.98;;
28934;SDS011;16044;52.726;-2.108;2022-12-24T11:09:30;43.08;;;10.32;;
28934;SDS011;16044;52.726;-2.108;2022-12-24T11:12:18;58.88;;;11.38;;
28934;SDS011;16044;52.726;-2.108;2022-12-24T11:14:58;63.90;;;12.43;;
28934;SDS011;16044;52.726;-2.108;2022-12-24T11:17:28;66.85;;;12.40;;
28934;SDS011;16044;52.726;-2.108;2022-12-24T11:19:55;63.40;;;12.15;;
28934;SDS011;16044;52.726;-2.108;2022-12-24T11:22:24;49.78;;;11.73;;
28934;SDS011;16044;52.726;-2.108;2022-12-24T11:27:46;47.75;;;11.88;;
28934;SDS011;16044;52.726;-2.108;2022-12-24T11:30:21;47.13;;;11.95;;
28934;SDS011;16044;52.726;-2.108;2022-12-24T11:35:27;61.78;;;11.80;;
28934;SDS011;16044;52.726;-2.108;2022-12-24T11:40:37;59.38;;;12.13;;
28934;SDS011;16044;52.726;-2.108;2022-12-24T11:43:12;61.00;;;12.50;;
28934;SDS011;16044;52.726;-2.108;2022-12-24T11:45:50;50.00;;;11.38;;
28934;SDS011;16044;52.726;-2.108;2022-12-24T11:48:32;55.35;;;11.65;;
28934;SDS011;16044;52.726;-2.108;2022-12-24T11:51:01;52.53;;;10.73;;
28934;SDS011;16044;52.726;-2.108;2022-12-24T11:53:45;53.03;;;10.82;;
28934;SDS011;16044;52.726;-2.108;2022-12-24T11:56:49;43.97;;;9.18;;
28934;SDS011;16044;52.726;-2.108;2022-12-24T11:59:30;47.58;;;9.27;;
28934;SDS011;16044;52.726;-2.108;2022-12-24T12:02:18;53.80;;;8.30;;
28934;SDS011;16044;52.726;-2.108;2022-12-24T12:05:03;43.83;;;9.20;;
28934;SDS011;16044;52.726;-2.108;2022-12-24T12:07:37;46.33;;;8.00;;
28934;SDS011;16044;52.726;-2.108;2022-12-24T12:10:06;48.33;;;8.30;;
28934;SDS011;16044;52.726;-2.108;2022-12-24T12:12:44;53.55;;;8.65;;
28934;SDS011;16044;52.726;-2.108;2022-12-24T12:15:23;44.88;;;7.03;;
28934;SDS011;16044;52.726;-2.108;2022-12-24T12:20:57;43.72;;;7.10;;
28934;SDS011;16044;52.726;-2.108;2022-12-24T12:23:30;45.63;;;8.18;;
28934;SDS011;16044;52.726;-2.108;2022-12-24T12:26:14;42.83;;;7.63;;
28934;SDS011;16044;52.726;-2.108;2022-12-24T12:28:50;41.13;;;8.02;;
28934;SDS011;16044;52.726;-2.108;2022-12-24T12:34:12;45.50;;;7.32;;
28934;SDS011;16044;52.726;-2.108;2022-12-24T12:36:48;39.10;;;6.80;;
28934;SDS011;16044;52.726;-2.108;2022-12-24T12:39:19;40.97;;;6.82;;
28934;SDS011;16044;52.726;-2.108;2022-12-24T12:44:53;49.03;;;7.07;;
28934;SDS011;16044;52.726;-2.108;2022-12-24T12:51:12;37.10;;;6.72;;
28934;SDS011;16044;52.726;-2.108;2022-12-24T12:56:32;43.58;;;7.13;;
28934;SDS011;16044;52.726;-2.108;2022-12-24T12:59:19;41.15;;;6.20;;
28934;SDS011;16044;52.726;-2.108;2022-12-24T13:02:11;41.72;;;7.32;;
28934;SDS011;16044;52.726;-2.108;2022-12-24T13:04:54;42.13;;;6.78;;
28934;SDS011;16044;52.726;-2.108;2022-12-24T13:08:20;43.33;;;6.00;;
28934;SDS011;16044;52.726;-2.108;2022-12-24T13:25:34;39.88;;;6.10;;
28934;SDS011;16044;52.726;-2.108;2022-12-24T13:30:50;41.28;;;5.25;;
28934;SDS011;16044;52.726;-2.108;2022-12-24T13:36:10;38.30;;;5.60;;
28934;SDS011;16044;52.726;-2.108;2022-12-24T13:39:04;48.80;;;6.47;;
28934;SDS011;16044;52.726;-2.108;2022-12-24T13:46:49;43.08;;;6.47;;
28934;SDS011;16044;52.726;-2.108;2022-12-24T13:49:32;43.05;;;5.95;;
28934;SDS011;16044;52.726;-2.108;2022-12-24T13:52:07;40.63;;;5.32;;
28934;SDS011;16044;52.726;-2.108;2022-12-24T14:00:06;47.60;;;5.32;;
28934;SDS011;16044;52.726;-2.108;2022-12-24T14:02:49;43.80;;;5.97;;
28934;SDS011;16044;52.726;-2.108;2022-12-24T14:05:46;47.00;;;6.00;;
28934;SDS011;16044;52.726;-2.108;2022-12-24T14:18:56;43.25;;;6.20;;
28934;SDS011;16044;52.726;-2.108;2022-12-24T14:21:33;48.08;;;6.18;;
28934;SDS011;16044;52.726;-2.108;2022-12-24T14:24:15;49.97;;;6.88;;
28934;SDS011;16044;52.726;-2.108;2022-12-24T14:26:58;43.35;;;6.65;;
28934;SDS011;16044;52.726;-2.108;2022-12-24T14:29:47;37.97;;;5.53;;
28934;SDS011;16044;52.726;-2.108;2022-12-24T14:35:18;46.92;;;5.15;;
28934;SDS011;16044;52.726;-2.108;2022-12-24T14:37:48;41.65;;;5.68;;
28934;SDS011;16044;52.726;-2.108;2022-12-24T14:40:24;41.00;;;5.32;;
28934;SDS011;16044;52.726;-2.108;2022-12-24T14:42:57;52.47;;;6.25;;
28934;SDS011;16044;52.726;-2.108;2022-12-24T14:56:31;42.90;;;6.38;;
28934;SDS011;16044;52.726;-2.108;2022-12-24T14:58:58;37.33;;;5.57;;
28934;SDS011;16044;52.726;-2.108;2022-12-24T15:01:30;38.97;;;5.68;;
28934;SDS011;16044;52.726;-2.108;2022-12-24T15:06:47;49.72;;;5.88;;
28934;SDS011;16044;52.726;-2.108;2022-12-24T15:09:19;39.15;;;5.65;;
28934;SDS011;16044;52.726;-2.108;2022-12-24T15:11:47;45.42;;;6.10;;
28934;SDS011;16044;52.726;-2.108;2022-12-24T15:14:18;44.95;;;6.07;;
28934;SDS011;16044;52.726;-2.108;2022-12-24T15:16:50;43.65;;;6.13;;
28934;SDS011;16044;52.726;-2.108;2022-12-24T15:19:25;44.30;;;6.38;;
28934;SDS011;16044;52.726;-2.108;2022-12-24T15:21:59;45.30;;;6.13;;
28934;SDS011;16044;52.726;-2.108;2022-12-24T15:24:29;46.15;;;6.35;;
28934;SDS011;16044;52.726;-2.108;2022-12-24T15:27:10;40.13;;;6.47;;
28934;SDS011;16044;52.726;-2.108;2022-12-24T15:29:42;48.00;;;5.60;;
28934;SDS011;16044;52.726;-2.108;2022-12-24T15:32:13;41.65;;;5.75;;
28934;SDS011;16044;52.726;-2.108;2022-12-24T15:34:43;38.78;;;5.57;;
28934;SDS011;16044;52.726;-2.108;2022-12-24T15:39:57;44.90;;;5.70;;
28934;SDS011;16044;52.726;-2.108;2022-12-24T15:42:47;40.15;;;5.50;;
28934;SDS011;16044;52.726;-2.108;2022-12-24T15:45:22;37.40;;;5.13;;
28934;SDS011;16044;52.726;-2.108;2022-12-24T15:47:56;44.15;;;6.38;;
28934;SDS011;16044;52.726;-2.108;2022-12-24T15:50:28;51.88;;;6.35;;
28934;SDS011;16044;52.726;-2.108;2022-12-24T15:53:21;37.42;;;5.95;;
28934;SDS011;16044;52.726;-2.108;2022-12-24T15:56:07;50.75;;;6.30;;
28934;SDS011;16044;52.726;-2.108;2022-12-24T15:58:37;41.90;;;5.68;;
28934;SDS011;16044;52.726;-2.108;2022-12-24T16:06:16;52.35;;;6.47;;
28934;SDS011;16044;52.726;-2.108;2022-12-24T16:08:44;46.17;;;6.20;;
28934;SDS011;16044;52.726;-2.108;2022-12-24T16:11:18;59.75;;;7.63;;
28934;SDS011;16044;52.726;-2.108;2022-12-24T16:14:01;44.13;;;7.07;;
28934;SDS011;16044;52.726;-2.108;2022-12-24T16:16:38;55.30;;;7.60;;
28934;SDS011;16044;52.726;-2.108;2022-12-24T16:19:20;48.88;;;7.38;;
28934;SDS011;16044;52.726;-2.108;2022-12-24T16:22:06;48.97;;;7.28;;
28934;SDS011;16044;52.726;-2.108;2022-12-24T16:24:51;46.53;;;8.00;;
28934;SDS011;16044;52.726;-2.108;2022-12-24T16:27:21;61.15;;;8.48;;
28934;SDS011;16044;52.726;-2.108;2022-12-24T16:29:47;51.05;;;8.68;;
28934;SDS011;16044;52.726;-2.108;2022-12-24T16:32:26;51.42;;;7.40;;
28934;SDS011;16044;52.726;-2.108;2022-12-24T16:35:00;51.80;;;7.50;;
28934;SDS011;16044;52.726;-2.108;2022-12-24T16:37:30;52.80;;;8.02;;
28934;SDS011;16044;52.726;-2.108;2022-12-24T16:39:57;64.50;;;10.35;;
28934;SDS011;16044;52.726;-2.108;2022-12-24T16:42:24;76.78;;;13.10;;
28934;SDS011;16044;52.726;-2.108;2022-12-24T16:45:10;59.90;;;12.07;;
28934;SDS011;16044;52.726;-2.108;2022-12-24T16:47:37;68.97;;;11.35;;
28934;SDS011;16044;52.726;-2.108;2022-12-24T16:50:13;59.88;;;9.63;;
28934;SDS011;16044;52.726;-2.108;2022-12-24T16:52:42;52.42;;;9.90;;
28934;SDS011;16044;52.726;-2.108;2022-12-24T16:55:11;66.90;;;10.95;;
28934;SDS011;16044;52.726;-2.108;2022-12-24T16:57:40;61.70;;;9.77;;
28934;SDS011;16044;52.726;-2.108;2022-12-24T17:00:15;58.13;;;10.07;;
28934;SDS011;16044;52.726;-2.108;2022-12-24T17:02:46;72.88;;;11.18;;
28934;SDS011;16044;52.726;-2.108;2022-12-24T17:05:15;72.68;;;11.82;;
28934;SDS011;16044;52.726;-2.108;2022-12-24T17:07:42;66.53;;;10.90;;
28934;SDS011;16044;52.726;-2.108;2022-12-24T17:10:12;60.85;;;10.30;;
28934;SDS011;16044;52.726;-2.108;2022-12-24T17:12:40;72.45;;;10.73;;
28934;SDS011;16044;52.726;-2.108;2022-12-24T17:15:08;57.90;;;10.15;;
28934;SDS011;16044;52.726;-2.108;2022-12-24T17:17:35;71.15;;;10.40;;
28934;SDS011;16044;52.726;-2.108;2022-12-24T17:20:03;67.72;;;11.55;;